createdAt,value
2018-11-03T00:02:26.428Z,101086.69
2018-11-03T00:04:55.474Z,101089.11
2018-11-03T00:07:24.484Z,101081.03
2018-11-03T00:09:53.448Z,101084.13
2018-11-03T00:12:22.446Z,101087.14
2018-11-03T00:14:51.411Z,101084.13
2018-11-03T00:17:20.413Z,101085.50
2018-11-03T00:19:49.398Z,101085.92
2018-11-03T00:22:18.378Z,101089.43
2018-11-03T00:24:47.354Z,101086.20
2018-11-03T00:27:16.399Z,101082.90
2018-11-03T00:29:45.395Z,101085.91
2018-11-03T00:32:14.379Z,101084.60
2018-11-03T00:34:43.396Z,101082.11
2018-11-03T00:37:12.334Z,101087.84
2018-11-03T00:39:41.327Z,101078.57
2018-11-03T00:42:10.315Z,101082.37
2018-11-03T00:44:39.287Z,101076.66
2018-11-03T00:47:08.287Z,101080.76
2018-11-03T00:49:37.330Z,101085.55
2018-11-03T00:52:06.476Z,101079.54
2018-11-03T00:54:35.451Z,101083.31
2018-11-03T00:57:04.455Z,101077.22
2018-11-03T00:59:33.431Z,101073.02
2018-11-03T01:02:02.515Z,101070.55
2018-11-03T01:04:31.462Z,101069.32
2018-11-03T01:07:00.458Z,101070.17
2018-11-03T01:09:29.432Z,101062.61
2018-11-03T01:11:58.488Z,101064.64
2018-11-03T01:14:27.468Z,101060.47
2018-11-03T01:16:56.443Z,101060.50
2018-11-03T01:19:25.410Z,101060.67
2018-11-03T01:21:54.378Z,101058.16
2018-11-03T01:24:23.352Z,101060.03
2018-11-03T01:26:52.331Z,101065.48
2018-11-03T01:29:21.317Z,101068.73
2018-11-03T01:31:50.316Z,101065.86
2018-11-03T01:34:19.382Z,101062.66
2018-11-03T01:36:48.335Z,101061.67
2018-11-03T01:39:17.276Z,101060.31
2018-11-03T01:41:46.284Z,101067.06
2018-11-03T01:44:15.266Z,101061.66
2018-11-03T01:46:44.254Z,101071.31
2018-11-03T01:49:13.476Z,101067.27
2018-11-03T01:51:42.458Z,101069.95
2018-11-03T01:54:11.451Z,101069.77
2018-11-03T01:56:40.463Z,101074.53
2018-11-03T01:59:09.497Z,101075.02
2018-11-03T02:01:38.454Z,101074.52
2018-11-03T02:04:07.459Z,101075.55
2018-11-03T02:06:36.438Z,101070.80
2018-11-03T02:09:07.266Z,101078.58
2018-11-03T02:11:36.273Z,101077.73
2018-11-03T02:14:05.289Z,101080.92
2018-11-03T02:16:34.250Z,101075.70
2018-11-03T02:19:03.290Z,101083.98
2018-11-03T02:21:32.261Z,101080.27
2018-11-03T02:24:01.242Z,101082.30
2018-11-03T02:26:30.200Z,101078.92
2018-11-03T02:28:59.179Z,101079.75
2018-11-03T02:31:28.171Z,101086.87
2018-11-03T02:33:57.209Z,101087.02
2018-11-03T02:36:26.184Z,101086.34
2018-11-03T02:38:55.145Z,101086.36
2018-11-03T02:41:24.204Z,101090.40
2018-11-03T02:43:53.197Z,101086.00
2018-11-03T02:46:22.196Z,101084.66
2018-11-03T02:48:51.182Z,101086.67
2018-11-03T02:51:20.150Z,101088.03
2018-11-03T02:53:49.126Z,101091.88
2018-11-03T02:56:18.159Z,101085.47
2018-11-03T02:58:47.162Z,101078.55
2018-11-03T03:01:16.151Z,101082.28
2018-11-03T03:03:45.165Z,101081.57
2018-11-03T03:06:14.177Z,101077.20
2018-11-03T03:08:43.151Z,101075.87
2018-11-03T03:11:12.155Z,101077.53
2018-11-03T03:13:41.239Z,101077.53
2018-11-03T03:16:10.235Z,101078.88
2018-11-03T03:18:39.206Z,101079.91
2018-11-03T03:21:08.289Z,101082.61
2018-11-03T03:23:37.290Z,101078.23
2018-11-03T03:26:06.739Z,101082.97
2018-11-03T03:28:35.848Z,101083.28
2018-11-03T03:31:04.790Z,101082.29
2018-11-03T03:33:33.825Z,101081.95
2018-11-03T03:36:02.879Z,101077.56
2018-11-03T03:38:31.898Z,101081.77
2018-11-03T03:41:00.964Z,101076.88
2018-11-03T03:43:29.979Z,101077.21
2018-11-03T03:45:58.975Z,101083.97
2018-11-03T03:48:27.957Z,101074.83
2018-11-03T03:50:56.929Z,101067.77
2018-11-03T03:53:25.907Z,101070.27
2018-11-03T03:55:54.873Z,101062.02
2018-11-03T03:58:23.857Z,101063.02
2018-11-03T04:00:52.816Z,101061.66
2018-11-03T04:03:21.820Z,101057.63
2018-11-03T04:05:50.796Z,101059.66
2018-11-03T04:08:19.747Z,101053.39
2018-11-03T04:10:48.784Z,101057.63
2018-11-03T04:13:17.767Z,101060.31
2018-11-03T04:15:46.720Z,101066.74
2018-11-03T04:18:15.696Z,101067.75
2018-11-03T04:20:44.680Z,101060.15
2018-11-03T04:23:13.643Z,101059.48
2018-11-03T04:25:42.622Z,101068.08
2018-11-03T04:28:11.622Z,101065.39
2018-11-03T04:30:40.610Z,101069.10
2018-11-03T04:33:09.630Z,101068.09
2018-11-03T04:35:38.614Z,101073.17
2018-11-03T04:38:07.647Z,101071.48
2018-11-03T04:40:36.627Z,101065.02
2018-11-03T04:43:05.646Z,101073.31
2018-11-03T04:45:34.685Z,101073.82
2018-11-03T04:48:03.657Z,101077.20
2018-11-03T04:50:32.677Z,101077.20
2018-11-03T04:53:01.726Z,101080.92
2018-11-03T04:55:30.728Z,101086.98
2018-11-03T04:57:59.700Z,101082.26
2018-11-03T05:00:28.742Z,101086.32
2018-11-03T05:02:57.695Z,101083.77
2018-11-03T05:05:26.663Z,101079.22
2018-11-03T05:07:55.656Z,101084.98
2018-11-03T05:10:24.660Z,101075.84
2018-11-03T05:12:53.710Z,101078.90
2018-11-03T05:15:22.690Z,101082.62
2018-11-03T05:17:51.650Z,101078.92
2018-11-03T05:20:20.615Z,101076.38
2018-11-03T05:22:49.632Z,101079.94
2018-11-03T05:25:18.638Z,101080.09
2018-11-03T05:27:47.624Z,101080.26
2018-11-03T05:30:16.604Z,101082.31
2018-11-03T05:32:45.597Z,101090.23
2018-11-03T05:35:14.580Z,101084.84
2018-11-03T05:37:43.554Z,101090.41
2018-11-03T05:40:12.546Z,101089.05
2018-11-03T05:42:41.512Z,101086.34
2018-11-03T05:45:10.557Z,101094.14
2018-11-03T05:47:39.516Z,101090.91
2018-11-03T05:50:10.002Z,101088.73
2018-11-03T05:52:38.971Z,101090.59
2018-11-03T05:55:08.858Z,101092.44
2018-11-03T05:57:37.875Z,101099.52
2018-11-03T06:00:08.826Z,101099.55
2018-11-03T06:02:37.830Z,101107.98
2018-11-03T06:05:07.257Z,101106.30
2018-11-03T06:07:36.278Z,101106.97
2018-11-03T06:10:05.764Z,101107.65
2018-11-03T06:12:34.748Z,101107.31
2018-11-03T06:15:03.759Z,101111.70
2018-11-03T06:17:32.726Z,101102.89
2018-11-03T06:20:01.727Z,101109.16
2018-11-03T06:22:30.724Z,101111.34
2018-11-03T06:24:59.728Z,101110.17
2018-11-03T06:27:28.777Z,101114.23
2018-11-03T06:29:57.827Z,101116.09
2018-11-03T06:32:26.806Z,101112.69
2018-11-03T06:34:55.822Z,101117.78
2018-11-03T06:37:24.944Z,101123.18
2018-11-03T06:39:53.902Z,101117.44
2018-11-03T06:42:22.891Z,101123.17
2018-11-03T06:44:51.896Z,101128.58
2018-11-03T06:47:20.939Z,101128.44
2018-11-03T06:49:49.891Z,101127.24
2018-11-03T06:52:18.960Z,101134.34
2018-11-03T06:54:47.950Z,101139.26
2018-11-03T06:57:16.971Z,101134.84
2018-11-03T06:59:45.928Z,101138.40
2018-11-03T07:02:14.913Z,101141.13
2018-11-03T07:04:43.916Z,101141.28
2018-11-03T07:07:12.895Z,101144.83
2018-11-03T07:09:41.925Z,101136.02
2018-11-03T07:12:10.956Z,101134.84
2018-11-03T07:14:39.976Z,101135.16
2018-11-03T07:17:08.954Z,101132.49
2018-11-03T07:19:37.979Z,101142.81
2018-11-03T07:22:06.977Z,101140.42
2018-11-03T07:24:35.929Z,101138.05
2018-11-03T07:27:04.944Z,101138.53
2018-11-03T07:29:34.000Z,101138.32
2018-11-03T07:32:02.986Z,101140.04
2018-11-03T07:34:32.016Z,101131.52
2018-11-03T07:37:00.999Z,101127.45
2018-11-03T07:39:30.095Z,101130.46
2018-11-03T07:41:59.108Z,101132.42
2018-11-03T07:44:28.095Z,101129.77
2018-11-03T07:46:57.105Z,101131.58
2018-11-03T07:49:26.273Z,101133.27
2018-11-03T07:51:55.224Z,101122.44
2018-11-03T07:54:24.207Z,101125.09
2018-11-03T07:56:53.175Z,101124.92
2018-11-03T07:59:22.162Z,101127.60
2018-11-03T08:01:51.126Z,101129.84
2018-11-03T08:04:20.138Z,101125.91
2018-11-03T08:06:49.149Z,101121.02
2018-11-03T08:09:18.077Z,101120.11
2018-11-03T08:11:47.162Z,101125.58
2018-11-03T08:14:16.127Z,101123.95
2018-11-03T08:16:45.071Z,101126.02
2018-11-03T08:19:14.407Z,101125.72
2018-11-03T08:21:43.440Z,101130.42
2018-11-03T08:24:12.452Z,101130.04
2018-11-03T08:26:41.428Z,101126.65
2018-11-03T08:29:10.383Z,101133.13
2018-11-03T08:31:39.593Z,101140.20
2018-11-03T08:34:08.456Z,101135.54
2018-11-03T08:36:37.439Z,101134.52
2018-11-03T08:39:08.222Z,101129.19
2018-11-03T08:41:37.264Z,101127.50
2018-11-03T08:44:06.227Z,101134.09
2018-11-03T08:46:35.258Z,101133.42
2018-11-03T08:49:04.248Z,101136.42
2018-11-03T08:51:33.204Z,101136.42
2018-11-03T08:54:02.194Z,101142.14
2018-11-03T08:56:31.170Z,101136.38
2018-11-03T08:59:00.183Z,101136.04
2018-11-03T09:01:29.130Z,101135.30
2018-11-03T09:03:58.169Z,101131.16
2018-11-03T09:06:27.165Z,101129.39
2018-11-03T09:08:56.195Z,101124.41
2018-11-03T09:11:25.491Z,101123.06
2018-11-03T09:13:54.514Z,101116.77
2018-11-03T09:16:23.523Z,101111.97
2018-11-03T09:18:52.508Z,101113.70
2018-11-03T09:21:21.506Z,101109.16
2018-11-03T09:23:50.489Z,101110.49
2018-11-03T09:26:19.488Z,101104.73
2018-11-03T09:28:48.450Z,101107.70
2018-11-03T09:31:17.472Z,101099.48
2018-11-03T09:33:46.439Z,101098.97
2018-11-03T09:36:15.400Z,101093.63
2018-11-03T09:38:44.413Z,101095.75
2018-11-03T09:41:13.349Z,101087.94
2018-11-03T09:43:42.301Z,101087.12
2018-11-03T09:46:11.277Z,101085.97
2018-11-03T09:48:40.247Z,101081.56
2018-11-03T09:51:09.277Z,101085.61
2018-11-03T09:53:38.234Z,101086.30
2018-11-03T09:56:07.331Z,101083.59
2018-11-03T09:58:36.303Z,101085.28
2018-11-03T10:01:05.308Z,101081.30
2018-11-03T10:03:34.247Z,101075.64
2018-11-03T10:06:03.226Z,101079.94
2018-11-03T10:08:32.250Z,101079.48
2018-11-03T10:11:01.272Z,101070.53
2018-11-03T10:13:30.264Z,101076.47
2018-11-03T10:15:59.310Z,101073.25
2018-11-03T10:18:28.230Z,101068.69
2018-11-03T10:20:57.189Z,101060.89
2018-11-03T10:23:26.256Z,101064.09
2018-11-03T10:25:55.237Z,101062.48
2018-11-03T10:28:24.251Z,101070.48
2018-11-03T10:30:53.224Z,101061.84
2018-11-03T10:33:22.265Z,101063.74
2018-11-03T10:35:51.232Z,101064.37
2018-11-03T10:38:20.177Z,101059.38
2018-11-03T10:40:49.151Z,101050.20
2018-11-03T10:43:18.144Z,101045.09
2018-11-03T10:45:47.104Z,101034.80
2018-11-03T10:48:16.103Z,101042.62
2018-11-03T10:50:45.132Z,101039.88
2018-11-03T10:53:14.107Z,101041.19
2018-11-03T10:55:43.142Z,101034.69
2018-11-03T10:58:12.126Z,101025.58
2018-11-03T11:00:46.068Z,101023.17
2018-11-03T11:03:19.939Z,101025.49
2018-11-03T11:06:55.648Z,101025.81
2018-11-03T11:09:29.730Z,101011.10
2018-11-03T11:12:03.690Z,101005.51
2018-11-03T11:14:32.751Z,101002.06
2018-11-03T11:17:01.866Z,101001.22
2018-11-03T11:19:30.775Z,100994.11
2018-11-03T11:21:59.732Z,101004.54
2018-11-03T11:24:28.801Z,100991.28
2018-11-03T11:26:57.998Z,100998.94
2018-11-03T11:29:26.978Z,100995.42
2018-11-03T11:31:55.954Z,101001.27
2018-11-03T11:34:24.947Z,100957.64
2018-11-03T11:36:53.907Z,100989.42
2018-11-03T11:39:22.888Z,100987.88
2018-11-03T11:41:51.906Z,100980.25
2018-11-03T11:44:21.013Z,100985.09
2018-11-03T11:46:49.961Z,100983.66
2018-11-03T11:49:19.003Z,100980.30
2018-11-03T11:51:48.008Z,100981.23
2018-11-03T11:54:17.010Z,100973.24
2018-11-03T11:56:46.010Z,100973.86
2018-11-03T11:59:14.952Z,100972.26
2018-11-03T12:01:44.004Z,100972.05
2018-11-03T12:04:12.962Z,100972.26
2018-11-03T12:06:41.974Z,100967.72
2018-11-03T12:09:11.114Z,100956.38
2018-11-03T12:11:40.163Z,100959.57
2018-11-03T12:14:09.148Z,100954.08
2018-11-03T12:16:38.104Z,100949.67
2018-11-03T12:19:07.104Z,100949.39
2018-11-03T12:21:36.044Z,100947.09
2018-11-03T12:24:05.239Z,100948.28
2018-11-03T12:26:34.216Z,100945.43
2018-11-03T12:29:03.184Z,100939.59
2018-11-03T12:31:32.141Z,100943.36
2018-11-03T12:34:01.142Z,100944.78
2018-11-03T12:36:30.100Z,100946.08
2018-11-03T12:38:59.119Z,100942.97
2018-11-03T12:41:28.176Z,100931.42
2018-11-03T12:43:57.116Z,100938.16
2018-11-03T12:46:26.138Z,100934.02
2018-11-03T12:48:55.137Z,100935.16
2018-11-03T12:51:24.110Z,100939.09
2018-11-03T12:53:53.066Z,100935.72
2018-11-03T12:56:22.050Z,100935.10
2018-11-03T12:58:51.086Z,100935.20
2018-11-03T13:01:20.070Z,100939.87
2018-11-03T13:03:49.121Z,100936.30
2018-11-03T13:06:18.164Z,100938.77
2018-11-03T13:08:47.199Z,100935.07
2018-11-03T13:11:16.840Z,100935.88
2018-11-03T13:13:45.848Z,100935.69
2018-11-03T13:16:14.814Z,100931.48
2018-11-03T13:18:43.775Z,100929.20
2018-11-03T13:21:12.747Z,100927.91
2018-11-03T13:23:41.699Z,100929.24
2018-11-03T13:26:10.659Z,100925.84
2018-11-03T13:28:39.719Z,100926.61
2018-11-03T13:31:08.364Z,100928.47
2018-11-03T13:33:37.280Z,100926.23
2018-11-03T13:36:06.399Z,100930.08
2018-11-03T13:38:35.425Z,100928.45
2018-11-03T13:41:04.449Z,100934.68
2018-11-03T13:43:33.348Z,100927.75
2018-11-03T13:46:02.402Z,100927.89
2018-11-03T13:48:31.368Z,100930.04
2018-11-03T13:51:00.371Z,100935.28
2018-11-03T13:53:29.295Z,100938.89
2018-11-03T13:55:58.275Z,100936.16
2018-11-03T13:58:27.267Z,100936.98
2018-11-03T14:00:56.219Z,100932.98
2018-11-03T14:03:25.174Z,100939.16
2018-11-03T14:05:54.228Z,100939.58
2018-11-03T14:08:23.212Z,100934.84
2018-11-03T14:10:52.132Z,100934.26
2018-11-03T14:13:21.149Z,100937.42
2018-11-03T14:15:50.074Z,100939.19
2018-11-03T14:18:19.030Z,100939.44
2018-11-03T14:20:48.027Z,100938.00
2018-11-03T14:23:17.002Z,100930.30
2018-11-03T14:25:46.037Z,100930.18
2018-11-03T14:28:15.046Z,100928.74
2018-11-03T14:30:44.080Z,100933.57
2018-11-03T14:33:13.069Z,100936.49
2018-11-03T14:35:42.072Z,100934.69
2018-11-03T14:38:11.067Z,100935.80
2018-11-03T14:40:40.052Z,100931.44
2018-11-03T14:43:09.134Z,100932.88
2018-11-03T14:45:38.062Z,100932.57
2018-11-03T14:48:07.228Z,100934.31
2018-11-03T14:50:36.358Z,100933.72
2018-11-03T14:53:05.318Z,100938.89
2018-11-03T14:55:34.288Z,100938.30
2018-11-03T14:58:03.311Z,100937.85
2018-11-03T15:00:36.709Z,100936.79
2018-11-03T15:03:06.267Z,100944.59
2018-11-03T15:05:35.240Z,100944.32
2018-11-03T15:08:04.203Z,100949.80
2018-11-03T15:10:33.248Z,100947.32
2018-11-03T15:13:02.238Z,100949.91
2018-11-03T15:15:31.242Z,100962.47
2018-11-03T15:18:00.221Z,100957.61
2018-11-03T15:20:29.191Z,100965.23
2018-11-03T15:22:58.151Z,100968.64
2018-11-03T15:25:27.120Z,100974.77
2018-11-03T15:27:56.127Z,100972.77
2018-11-03T15:30:25.108Z,100971.09
2018-11-03T15:32:54.049Z,100975.52
2018-11-03T15:35:23.038Z,100978.57
2018-11-03T15:37:52.057Z,100978.08
2018-11-03T15:40:21.050Z,100976.06
2018-11-03T15:42:50.058Z,100981.81
2018-11-03T15:45:19.198Z,100983.47
2018-11-03T15:47:48.559Z,100982.48
2018-11-03T15:50:18.123Z,100986.02
2018-11-03T15:52:47.727Z,100981.97
2018-11-03T15:55:16.691Z,100982.29
2018-11-03T15:57:45.664Z,100983.62
2018-11-03T16:00:17.947Z,100986.46
2018-11-03T16:02:47.510Z,100989.66
2018-11-03T16:05:17.010Z,100985.28
2018-11-03T16:07:46.919Z,100983.75
2018-11-03T16:10:15.897Z,100988.63
2018-11-03T16:12:44.993Z,100985.78
2018-11-03T16:15:14.240Z,100984.76
2018-11-03T16:17:43.557Z,100983.55
2018-11-03T16:20:13.381Z,100981.36
2018-11-03T16:22:43.136Z,100982.16
2018-11-03T16:25:12.092Z,100983.51
2018-11-03T16:27:41.278Z,100980.09
2018-11-03T16:30:12.473Z,100984.14
2018-11-03T16:32:41.577Z,100979.09
2018-11-03T16:35:10.511Z,100987.82
2018-11-03T16:37:40.011Z,100986.16
2018-11-03T16:40:10.646Z,100986.09
2018-11-03T16:42:39.724Z,100987.41
2018-11-03T16:45:10.289Z,100986.41
2018-11-03T16:47:39.383Z,100985.72
2018-11-03T16:50:09.783Z,100987.38
2018-11-03T16:52:39.284Z,100989.19
2018-11-03T16:55:08.856Z,100994.39
2018-11-03T16:57:38.541Z,100996.55
2018-11-03T17:00:08.951Z,100991.66
2018-11-03T17:02:37.996Z,100997.35
2018-11-03T17:05:07.879Z,100998.35
2018-11-03T17:07:36.846Z,100994.61
2018-11-03T17:10:07.803Z,100995.95
2018-11-03T17:12:37.026Z,100992.56
2018-11-03T17:15:05.916Z,100995.11
2018-11-03T17:17:34.900Z,100997.61
2018-11-03T17:20:03.912Z,100998.60
2018-11-03T17:22:32.855Z,100994.14
2018-11-03T17:25:01.916Z,100992.78
2018-11-03T17:27:31.549Z,100990.41
2018-11-03T17:30:00.483Z,100996.98
2018-11-03T17:32:29.487Z,100994.28
2018-11-03T17:34:58.453Z,100998.83
2018-11-03T17:37:27.431Z,100996.83
2018-11-03T17:39:56.411Z,100990.94
2018-11-03T17:42:25.424Z,100994.44
2018-11-03T17:44:54.372Z,100996.28
2018-11-03T17:47:23.397Z,100991.55
2018-11-03T17:49:52.416Z,100995.73
2018-11-03T17:52:21.408Z,100989.34
2018-11-03T17:54:50.415Z,100945.19
2018-11-03T17:57:19.381Z,100985.55
2018-11-03T17:59:48.406Z,100984.65
2018-11-03T18:02:17.376Z,100986.78
2018-11-03T18:04:46.403Z,100985.09
2018-11-03T18:07:15.383Z,100987.78
2018-11-03T18:09:44.419Z,100988.96
2018-11-03T18:12:13.565Z,100992.80
2018-11-03T18:14:42.637Z,100987.02
2018-11-03T18:17:11.620Z,100990.69
2018-11-03T18:19:40.692Z,100993.66
2018-11-03T18:22:09.657Z,100988.23
2018-11-03T18:24:38.608Z,100987.86
2018-11-03T18:27:07.640Z,100987.80
2018-11-03T18:29:36.573Z,100989.06
2018-11-03T18:32:05.820Z,100979.66
2018-11-03T18:34:34.821Z,100988.42
2018-11-03T18:37:03.832Z,100983.05
2018-11-03T18:39:32.826Z,100987.42
2018-11-03T18:42:01.773Z,100979.50
2018-11-03T18:44:30.752Z,100992.95
2018-11-03T18:46:59.712Z,100986.73
2018-11-03T18:49:28.728Z,100990.56
2018-11-03T18:51:57.758Z,100989.16
2018-11-03T18:54:26.704Z,100988.78
2018-11-03T18:56:55.695Z,100992.24
2018-11-03T18:59:24.654Z,101000.58
2018-11-03T19:01:53.626Z,101003.91
2018-11-03T19:04:22.590Z,101002.85
2018-11-03T19:06:59.193Z,101005.52
2018-11-03T19:09:28.558Z,101010.13
2018-11-03T19:12:02.473Z,101009.25
2018-11-03T19:14:31.686Z,101010.67
2018-11-03T19:17:00.759Z,101008.45
2018-11-03T19:19:29.686Z,101006.19
2018-11-03T19:21:58.667Z,101010.01
2018-11-03T19:24:27.683Z,101010.53
2018-11-03T19:26:56.662Z,101006.15
2018-11-03T19:29:25.645Z,101006.79
2018-11-03T19:31:54.626Z,101006.44
2018-11-03T19:34:23.749Z,101006.79
2018-11-03T19:37:02.504Z,101008.13
2018-11-03T19:39:35.117Z,101005.38
2018-11-03T19:42:04.083Z,101003.97
2018-11-03T19:47:45.490Z,101007.82
2018-11-03T19:50:14.601Z,101008.42
2018-11-03T19:52:44.553Z,101009.34
2018-11-03T19:55:13.565Z,101013.64
2018-11-03T19:57:42.575Z,101019.33
2018-11-03T20:00:13.858Z,101013.53
2018-11-03T20:02:50.539Z,101013.13
2018-11-03T20:05:19.496Z,101022.18
2018-11-03T20:07:48.496Z,101013.91
2018-11-03T20:10:17.452Z,101020.08
2018-11-03T20:12:46.810Z,101026.72
2018-11-03T20:15:30.527Z,101030.27
2018-11-03T20:17:59.680Z,101029.69
2018-11-03T20:20:28.602Z,101030.13
2018-11-03T20:22:57.589Z,101028.71
2018-11-03T20:25:26.608Z,101037.42
2018-11-03T20:27:55.558Z,101032.11
2018-11-03T20:30:24.558Z,101030.86
2018-11-03T20:32:53.539Z,101029.16
2018-11-03T20:35:22.564Z,100989.31
2018-11-03T20:37:51.575Z,101027.73
2018-11-03T20:40:20.696Z,101023.66
2018-11-03T20:42:49.661Z,101030.00
2018-11-03T20:45:18.654Z,101029.29
2018-11-03T20:47:47.706Z,101023.92
2018-11-03T20:50:16.699Z,101034.78
2018-11-03T20:52:45.696Z,101032.67
2018-11-03T20:55:14.656Z,101032.94
2018-11-03T20:57:43.623Z,101033.02
2018-11-03T21:00:14.106Z,101034.04
2018-11-03T21:02:43.280Z,101038.00
2018-11-03T21:05:12.548Z,101029.86
2018-11-03T21:07:42.453Z,101019.85
2018-11-03T21:10:11.405Z,101022.05
2018-11-03T21:12:40.361Z,101027.99
2018-11-03T21:15:09.351Z,101027.63
2018-11-03T21:17:38.329Z,101033.48
2018-11-03T21:20:07.915Z,101027.41
2018-11-03T21:22:36.894Z,101033.83
2018-11-03T21:25:06.068Z,101030.07
2018-11-03T21:27:35.034Z,101026.31
2018-11-03T21:30:04.083Z,101034.72
2018-11-03T21:32:33.040Z,101030.69
2018-11-03T21:35:02.003Z,101027.66
2018-11-03T21:37:30.947Z,101025.13
2018-11-03T21:39:59.907Z,101025.95
2018-11-03T21:42:28.880Z,101025.27
2018-11-03T21:44:57.801Z,101019.81
2018-11-03T21:47:26.782Z,101020.86
2018-11-03T21:49:55.740Z,101017.69
2018-11-03T21:52:24.738Z,101017.92
2018-11-03T21:54:53.691Z,101008.25
2018-11-03T21:57:22.718Z,101008.64
2018-11-03T21:59:51.664Z,101011.41
2018-11-03T22:02:20.604Z,101011.41
2018-11-03T22:04:50.455Z,101007.07
2018-11-03T22:07:19.404Z,101003.54
2018-11-03T22:09:48.352Z,101004.52
2018-11-03T22:12:17.335Z,101001.61
2018-11-03T22:14:46.343Z,100998.57
2018-11-03T22:17:15.304Z,101002.95
2018-11-03T22:19:44.350Z,101002.95
2018-11-03T22:22:13.301Z,101005.63
2018-11-03T22:24:42.252Z,101000.17
2018-11-03T22:27:11.202Z,100999.38
2018-11-03T22:29:40.133Z,101004.02
2018-11-03T22:32:09.081Z,101002.61
2018-11-03T22:34:38.041Z,101001.21
2018-11-03T22:37:06.999Z,101001.99
2018-11-03T22:39:35.962Z,101004.87
2018-11-03T22:42:05.256Z,101002.06
2018-11-03T22:44:34.325Z,100993.00
2018-11-03T22:47:03.256Z,100993.98
2018-11-03T22:49:32.258Z,100991.44
2018-11-03T22:52:01.358Z,100985.03
2018-11-03T22:54:30.287Z,100980.66
2018-11-03T22:56:59.272Z,100986.98
2018-11-03T22:59:28.282Z,100983.72
2018-11-03T23:01:57.421Z,100980.42
2018-11-03T23:04:26.461Z,100976.17
2018-11-03T23:06:55.431Z,100972.08
2018-11-03T23:09:24.391Z,100978.80
2018-11-03T23:11:53.357Z,100971.55
2018-11-03T23:14:22.315Z,100976.17
2018-11-03T23:16:51.296Z,100974.12
2018-11-03T23:19:20.269Z,100973.86
2018-11-03T23:21:49.272Z,100970.36
2018-11-03T23:24:18.224Z,100966.27
2018-11-03T23:26:47.248Z,100965.29
2018-11-03T23:29:16.259Z,100963.84
2018-11-03T23:31:45.172Z,100966.39
2018-11-03T23:34:14.527Z,100961.53
2018-11-03T23:36:43.487Z,100961.53
2018-11-03T23:39:12.795Z,100964.46
2018-11-03T23:41:41.751Z,100963.48
2018-11-03T23:44:11.117Z,100954.89
2018-11-03T23:46:40.110Z,100956.97
2018-11-03T23:49:09.146Z,100964.28
2018-11-03T23:51:38.138Z,100956.42
2018-11-03T23:54:07.200Z,100953.28
2018-11-03T23:56:36.186Z,100949.91
2018-11-03T23:59:05.141Z,100949.92
